Latest Weather Observations for Thredbo Top Station

IDN60801

Issued at 10:35 pm EDT Friday 28 November 2014 (issued every 30 minutes, with the page automatically refreshed every 10 minutes)

About weather observations | Map of weather stations | Latest weather observations for NSW | Other Formats
Station Details ID: 071032 Name: THREDBO AWS Lat: -36.49 Lon: 148.29 Height: 1957.0 m
Data from the previous 72 hours. | See also: Recent months at Thredbo Top Station
Date/Time
EDT
Temp
°C
App
Temp
°C
Dew
Point
Rel
Hum
%
Delta-T
°C
Wind Press
QNH
hPa
Press
MSL
hPa
Rain
since 9 am
mm
Dir
 
Spd
km/h
Gust
km/h
Spd
kts
Gust
kts
28/10:30pm 8.0 6.2 7.9 99 0.1 ENE 7 11 4 6 1022.9 1021.9 0.0
28/10:00pm 8.3 6.2 8.2 99 0.1 ENE 9 15 5 8 1022.9 1021.9 0.0
28/09:30pm 8.5 7.5 7.3 92 0.6 SE 2 4 1 2 1022.7 1021.6 0.0
28/09:00pm 8.7 7.3 7.2 90 0.8 S 4 7 2 4 1022.4 1021.4 0.0
28/08:30pm 9.1 7.2 6.5 84 1.3 S 6 9 3 5 1022.2 1021.2 0.0
28/08:00pm 10.2 8.0 6.2 76 2.0 SSE 7 15 4 8 1022.0 1020.9 0.0
28/07:30pm 10.9 7.5 5.7 70 2.6 SSE 13 19 7 10 1021.8 1020.7 0.0
28/07:00pm 12.0 9.8 5.2 63 3.4 N 6 17 3 9 1021.3 1020.2 0.0
28/06:30pm 12.0 9.8 5.4 64 3.3 W 6 9 3 5 1021.1 1020.0 0.0
28/06:00pm 12.9 10.7 5.3 60 3.8 NW 6 9 3 5 1021.2 1020.1 0.0
28/05:30pm 13.4 11.0 5.3 58 4.1 WNW 7 17 4 9 1021.2 1020.1 0.0
28/05:00pm 14.0 9.5 6.1 59 4.1 NW 19 28 10 15 1021.3 1020.2 0.0
28/04:30pm 13.4 9.6 5.6 59 4.0 WNW 15 24 8 13 1021.4 1020.3 0.0
28/04:00pm 12.4 7.4 4.4 58 3.9 WNW 20 28 11 15 1021.8 1020.7 0.0
28/03:30pm 14.1 10.2 5.2 55 4.5 NW 15 26 8 14 1021.9 1020.8 0.0
28/03:00pm 12.2 8.2 4.7 60 3.7 W 15 22 8 12 1022.2 1021.2 0.0
28/02:30pm 14.1 10.8 4.7 53 4.7 NW 11 20 6 11 1022.4 1021.4 0.0
28/02:00pm 12.3 8.0 3.3 54 4.3 NNW 15 28 8 15 1022.7 1021.6 0.0
28/01:30pm 12.1 8.8 2.3 51 4.6 SW 9 20 5 11 1023.0 1022.0 0.0
28/01:00pm 11.7 6.3 2.7 54 4.2 NNW 20 24 11 13 1023.4 1022.3 0.0
28/12:30pm 12.3 7.8 4.3 58 3.9 WNW 17 26 9 14 1023.7 1022.7 0.0
28/12:00pm 11.0 7.0 4.7 65 3.1 W 15 26 8 14 1023.8 1022.8 0.0
28/11:30am 10.1 5.3 2.7 60 3.4 W 17 26 9 14 1024.2 1023.2 0.0
28/11:00am 10.8 6.0 2.4 56 3.9 W 17 30 9 16 1024.2 1023.2 0.0
28/10:30am 10.9 6.8 4.1 63 3.3 WSW 15 30 8 16 1024.0 1023.0 0.0
28/10:00am 10.8 6.2 3.6 61 3.4 WSW 17 33 9 18 1024.0 1023.0 0.0
28/09:30am 10.8 6.3 4.0 63 3.3 W 17 26 9 14 1024.0 1023.0 0.0
28/09:00am 9.9 5.0 4.3 68 2.7 W 19 28 10 15 1024.2 1023.2 0.0
28/08:30am 9.5 5.8 4.3 70 2.5 W 13 24 7 13 1023.8 1022.8 0.0
28/08:00am 9.3 5.9 6.0 80 1.6 W 13 26 7 14 1023.7 1022.7 0.0
28/07:30am 8.8 5.3 5.4 79 1.7 W 13 22 7 12 1023.6 1022.6 0.0
28/07:00am 8.3 5.6 5.4 82 1.4 W 9 17 5 9 1023.6 1022.6 0.0
28/06:30am 7.8 4.2 4.9 82 1.4 W 13 20 7 11 1023.5 1022.5 0.0
28/06:00am 6.9 3.4 5.5 91 0.7 W 13 19 7 10 1023.4 1022.3 0.0
28/05:30am 6.2 2.0 4.0 86 1.0 WNW 15 20 8 11 1023.1 1022.1 0.0
28/05:00am 6.0 1.2 2.8 80 1.4 WNW 17 24 9 13 1022.8 1021.8 0.0
28/04:30am 6.2 0.8 1.5 72 2.1 NW 19 24 10 13 1022.9 1021.9 0.0
28/04:00am 6.2 0.6 1.3 71 2.1 NW 20 26 11 14 1022.9 1021.9 0.0
28/03:30am 5.9 0.3 0.9 70 2.2 WNW 20 24 11 13 1023.1 1022.1 0.0
28/03:00am 5.8 1.1 1.0 71 2.1 WNW 15 22 8 12 1023.2 1022.2 0.0
28/02:30am 6.1 2.2 1.2 71 2.1 WNW 11 15 6 8 1023.6 1022.6 0.0
28/02:00am 6.7 2.9 1.6 70 2.2 W 11 15 6 8 1023.8 1022.8 0.0
28/01:30am 5.1 2.2 1.6 78 1.5 WNW 6 11 3 6 1024.0 1023.0 0.0
28/01:00am 4.3 2.2 1.5 82 1.2 NNE 2 7 1 4 1024.3 1023.3 0.0
28/12:30am 3.4 -0.9 1.3 86 0.9 NNW 13 19 7 10 1024.5 1023.5 0.0
28/12:00am 3.2 1.1 1.6 89 0.7 S 2 4 1 2 1025.0 1024.0 0.0
 
Date/Time
EDT
Temp
°C
App
Temp
°C
Dew
Point
Rel
Hum
%
Delta-T
°C
Wind Press
QNH
hPa
Press
MSL
hPa
Rain
since 9 am
mm
Dir
 
Spd
km/h
Gust
km/h
Spd
kts
Gust
kts
27/11:30pm 3.2 -0.4 0.4 82 1.2 NNW 9 19 5 10 1025.1 1024.1 0.0
27/11:00pm 2.0 -2.4 0.2 88 0.7 NNW 13 15 7 8 1025.1 1024.1 0.0
27/10:30pm 2.4 -1.3 0.0 84 1.0 NNE 9 11 5 6 1025.3 1024.3 0.0
27/10:00pm 3.8 0.2 0.3 78 1.4 NE 9 15 5 8 1025.6 1024.7 0.0
27/09:30pm 4.6 0.9 0.2 73 1.8 NE 9 13 5 7 1025.3 1024.3 0.0
27/09:00pm 5.5 1.4 -0.1 67 2.3 E 11 19 6 10 1025.1 1024.1 0.0
27/08:30pm 5.4 2.2 -0.4 66 2.4 ENE 6 13 3 7 1024.7 1023.8 0.0
27/08:00pm 6.9 3.2 -0.3 60 3.0 E 9 15 5 8 1024.5 1023.5 0.0
27/07:30pm 8.0 4.4 0.3 58 3.3 E 9 13 5 7 1024.0 1023.0 0.0
27/07:00pm 9.1 5.9 0.8 56 3.7 ESE 7 13 4 7 1023.8 1022.8 0.0
27/06:30pm 9.4 6.0 2.0 60 3.4 SSE 9 17 5 9 1023.6 1022.6 0.0
27/06:00pm 11.4 7.4 2.9 56 4.0 S 13 20 7 11 1023.1 1022.1 0.0
27/05:30pm 11.1 8.6 3.6 60 3.6 ESE 6 11 3 6 1023.0 1022.0 0.0
27/05:00pm 10.2 6.7 3.3 62 3.2 ESE 11 19 6 10 1023.1 1022.1 0.0
27/04:30pm 11.1 8.1 3.9 61 3.5 SE 9 17 5 9 1023.0 1022.0 0.0
27/04:00pm 12.2 8.5 4.7 60 3.7 S 13 26 7 14 1023.0 1022.0 0.0
27/03:30pm 10.9 8.2 3.7 61 3.5 S 7 26 4 14 1022.8 1021.8 0.0
27/03:00pm 12.3 9.5 3.3 54 4.3 E 7 17 4 9 1022.7 1021.6 0.0
27/02:30pm 13.4 8.7 2.9 49 5.0 S 17 30 9 16 1022.9 1021.9 0.0
27/02:00pm 12.9 8.3 -1.1 38 6.1 SSW 13 22 7 12 1023.0 1022.0 0.0
27/01:30pm 12.6 9.1 1.0 45 5.3 S 9 20 5 11 1023.1 1022.1 0.0
27/01:00pm 12.5 8.2 0.9 45 5.3 SSE 13 24 7 13 1023.2 1022.2 0.0
27/12:30pm 10.9 6.2 1.2 51 4.4 SSW 15 28 8 15 1023.5 1022.5 0.0
27/12:00pm 10.7 7.6 1.5 53 4.2 SSW 7 19 4 10 1023.6 1022.6 0.0
27/11:30am 9.8 6.0 -1.0 47 4.6 W 9 22 5 12 1023.6 1022.6 0.0
27/11:00am 10.1 6.2 3.2 62 3.2 WSW 13 20 7 11 1023.7 1022.7 0.0
27/10:30am 9.5 4.8 0.9 55 3.8 W 15 22 8 12 1023.6 1022.6 0.0
27/10:00am 9.0 4.2 -0.1 53 3.9 W 15 22 8 12 1023.5 1022.5 0.0
27/09:30am 8.4 3.4 3.8 73 2.2 WNW 19 28 10 15 1023.5 1022.5 0.0
27/09:00am 7.6 3.0 3.8 77 1.8 NW 17 26 9 14 1023.5 1022.5 0.4
27/08:30am 7.3 2.4 4.3 81 1.4 WNW 19 24 10 13 1023.6 1022.6 0.4
27/08:00am 7.1 2.2 3.9 80 1.5 W 19 26 10 14 1023.5 1022.5 0.2
27/07:30am 6.7 2.3 4.9 88 0.9 WNW 17 24 9 13 1023.1 1022.1 0.2
27/07:00am 6.0 1.2 4.5 90 0.7 NW 19 26 10 14 1022.8 1021.8 0.2
27/06:30am 5.3 0.8 4.0 91 0.6 WNW 17 24 9 13 1022.8 1021.8 0.2
27/06:00am 4.0 0.2 3.9 99 0.0 WNW 13 15 7 8 1022.3 1021.3 0.2
27/05:30am 3.6 -0.3 3.5 99 0.0 WNW 13 15 7 8 1022.2 1021.2 0.2
27/05:00am 3.6 0.5 3.5 99 0.0 WNW 9 11 5 6 1022.0 1020.9 0.2
27/04:30am 3.5 0.4 3.4 99 0.0 WNW 9 13 5 7 1021.8 1020.7 0.2
27/04:00am 2.7 -1.0 2.6 99 0.0 NW 11 13 6 7 1021.5 1020.5 0.2
27/03:30am 3.4 -0.5 3.3 99 0.0 NNW 13 17 7 9 1021.5 1020.5 0.2
27/03:00am 4.1 1.6 4.0 99 0.0 N 6 11 3 6 1021.8 1020.7 0.2
27/02:30am 4.1 1.5 4.0 99 0.0 N 7 11 4 6 1021.9 1020.8 0.2
27/02:00am 4.6 2.6 4.5 99 0.0 ENE 4 7 2 4 1022.1 1021.0 0.2
27/01:30am 4.7 2.4 4.6 99 0.0 NE 6 11 3 6 1022.3 1021.3 0.0
27/01:00am 4.7 2.4 4.6 99 0.0 E 6 11 3 6 1022.6 1021.5 0.0
27/12:30am 4.9 2.4 4.8 99 0.0 ENE 7 11 4 6 1022.7 1021.6 0.0
27/12:00am 4.8 1.9 4.7 99 0.0 E 9 11 5 6 1022.9 1021.9 0.0
 
Date/Time
EDT
Temp
°C
App
Temp
°C
Dew
Point
Rel
Hum
%
Delta-T
°C
Wind Press
QNH
hPa
Press
MSL
hPa
Rain
since 9 am
mm
Dir
 
Spd
km/h
Gust
km/h
Spd
kts
Gust
kts
26/11:30pm 4.9 2.4 4.8 99 0.0 E 7 9 4 5 1022.9 1021.9 0.0
26/11:00pm 5.0 2.7 4.9 99 0.0 ENE 6 9 3 5 1023.0 1022.0 0.0
26/10:30pm 5.2 2.8 5.1 99 0.0 E 7 11 4 6 1022.9 1021.9 0.0
26/10:00pm 5.4 3.0 5.3 99 0.0 ENE 7 11 4 6 1022.7 1021.6 0.0
26/09:30pm 5.7 3.6 5.6 99 0.0 SE 6 9 3 5 1022.6 1021.5 0.0
26/09:00pm 5.8 4.1 5.7 99 0.0 ESE 4 6 2 3 1022.2 1021.2 0.0
26/08:30pm 5.9 4.6 5.8 99 0.0 SE 2 4 1 2 1021.8 1020.7 0.0
26/08:00pm 7.1 3.7 4.2 82 1.4 NW 11 17 6 9 1021.4 1020.3 0.0
26/07:30pm 7.3 4.3 3.9 79 1.6 WNW 9 15 5 8 1021.2 1020.1 0.0
26/07:00pm 8.2 5.3 4.6 78 1.7 W 9 13 5 7 1020.7 1019.6 0.0
26/06:30pm 8.7 5.6 3.5 70 2.4 WSW 9 19 5 10 1020.2 1019.0 0.0
26/06:00pm 9.0 5.5 3.4 68 2.6 W 11 15 6 8 1019.9 1018.8 0.0
26/05:30pm 11.0 7.8 3.1 58 3.7 W 9 19 5 10 1019.7 1018.6 0.0
26/05:00pm 10.6 7.5 3.4 61 3.4 WSW 9 17 5 9 1019.7 1018.6 0.0
26/04:30pm 9.2 6.2 2.3 62 3.2 W 7 17 4 9 1019.9 1018.8 0.0
26/04:00pm 9.2 5.5 2.1 61 3.2 W 11 20 6 11 1020.0 1018.9 0.0
26/03:30pm 10.3 5.9 2.9 60 3.5 WSW 15 30 8 16 1020.0 1018.9 0.0
26/03:00pm 10.0 6.2 3.7 65 3.0 W 13 24 7 13 1020.0 1018.9 0.0
26/02:30pm 9.8 5.1 3.3 64 3.1 W 17 28 9 15 1020.4 1019.3 0.0
26/02:00pm 9.9 5.7 3.6 65 3.0 W 15 26 8 14 1020.5 1019.4 0.0
26/01:30pm 9.9 4.7 3.4 64 3.1 W 20 32 11 17 1020.4 1019.3 0.0
26/01:00pm 9.1 3.0 2.7 64 2.9 NW 24 35 13 19 1020.4 1019.3 0.0
26/12:30pm 9.2 3.3 1.9 60 3.3 NW 22 33 12 18 1020.6 1019.5 0.0
26/12:00pm 8.9 3.4 0.6 56 3.6 NW 19 32 10 17 1020.4 1019.3 0.0
26/11:30am 8.4 2.3 0.6 58 3.4 NW 22 33 12 18 1020.4 1019.3 0.0
26/11:00am 8.1 2.3 2.4 67 2.6 NW 22 35 12 19 1020.6 1019.5 0.0
26/10:30am 5.9 -2.1 0.3 67 2.4 WNW 32 39 17 21 1020.5 1019.4 0.0
26/10:00am 5.7 -2.0 -0.1 66 2.4 NW 30 37 16 20 1020.4 1019.3 0.0
26/09:30am 3.9 -4.3 0.1 76 1.6 NW 33 43 18 23 1020.8 1019.8 0.0
26/09:00am 3.6 -3.6 0.5 80 1.3 WNW 28 39 15 21 1020.7 1019.6 0.0
26/08:30am 3.1 -3.8 0.2 81 1.2 WNW 26 35 14 19 1020.7 1019.6 0.0
26/08:00am 3.0 -4.7 0.1 81 1.2 WNW 30 39 16 21 1020.6 1019.5 0.0
26/07:30am 2.7 -3.5 -0.1 82 1.1 WNW 22 30 12 16 1020.3 1019.2 0.0
26/07:00am 2.8 -4.1 -0.1 81 1.2 W 26 37 14 20 1020.2 1019.0 0.0
26/06:30am 2.4 -3.5 -0.5 81 1.2 W 20 30 11 16 1020.2 1019.0 0.0
26/06:00am 2.7 -3.3 -1.8 72 1.7 W 20 30 11 16 1020.0 1018.9 0.0
26/05:30am 2.5 -4.0 -2.2 71 1.8 W 22 33 12 18 1020.0 1018.9 0.0
26/05:00am 2.4 -5.4 -3.9 63 2.3 W 28 35 15 19 1019.7 1018.6 0.0
26/04:30am 2.5 -5.7 -4.2 61 2.4 WNW 30 35 16 19 1019.6 1018.5 0.0
26/04:00am 2.1 -5.1 -2.4 72 1.7 WNW 26 32 14 17 1019.7 1018.6 0.0
26/03:30am 2.3 -4.7 -3.8 64 2.2 WNW 24 32 13 17 1019.7 1018.6 0.0
26/03:00am 1.7 -5.1 -1.5 79 1.2 WNW 24 30 13 16 1019.9 1018.8 0.0
26/02:30am 2.7 -5.0 -3.2 65 2.2 WNW 28 33 15 18 1020.2 1019.0 0.0
26/02:00am 2.7 -4.8 -4.9 57 2.9 NW 26 32 14 17 1020.2 1019.0 0.0
26/01:30am 2.9 -4.7 -5.2 55 2.9 NW 26 32 14 17 1020.5 1019.4 0.0
26/01:00am 3.0 -3.7 -3.8 61 2.5 NW 22 28 12 15 1021.0 1019.9 0.0
26/12:30am 2.5 -4.0 -2.8 68 2.0 WNW 22 26 12 14 1021.3 1020.2 0.0
26/12:00am 2.6 -3.4 -3.3 65 2.2 WNW 19 24 10 13 1021.4 1020.3 0.0
 
Date/Time
EDT
Temp
°C
App
Temp
°C
Dew
Point
Rel
Hum
%
Delta-T
°C
Wind Press
QNH
hPa
Press
MSL
hPa
Rain
since 9 am
mm
Dir
 
Spd
km/h
Gust
km/h
Spd
kts
Gust
kts
25/11:30pm 2.9 -3.4 -3.6 62 2.4 WNW 20 24 11 13 1021.5 1020.5 0.0
25/11:00pm 2.2 -2.7 -3.1 68 2.0 NNW 13 19 7 10 1021.5 1020.5 0.0

Other Formats:

Comma delimited format used in spreadsheet applications
http://www.bom.gov.au/fwo/IDN60801/IDN60801.95909.axf

JavaScript Object Notation format (JSON) in row-major order
http://www.bom.gov.au/fwo/IDN60801/IDN60801.95909.json